sensor_id;sensor_type;location;lat;lon;timestamp;P1;durP1;ratioP1;P2;durP2;ratioP2
37349;SDS011;23231;52.358;4.926;2023-06-22T00:04:03;21.33;;;13.93;;
37349;SDS011;23231;52.358;4.926;2023-06-22T00:09:03;19.70;;;11.38;;
37349;SDS011;23231;52.358;4.926;2023-06-22T00:14:04;18.98;;;11.85;;
37349;SDS011;23231;52.358;4.926;2023-06-22T00:19:04;18.65;;;11.88;;
37349;SDS011;23231;52.358;4.926;2023-06-22T00:24:05;17.45;;;13.02;;
37349;SDS011;23231;52.358;4.926;2023-06-22T00:29:06;21.35;;;13.25;;
37349;SDS011;23231;52.358;4.926;2023-06-22T00:34:07;19.50;;;13.05;;
37349;SDS011;23231;52.358;4.926;2023-06-22T00:39:08;25.20;;;14.90;;
37349;SDS011;23231;52.358;4.926;2023-06-22T00:44:09;22.52;;;14.45;;
37349;SDS011;23231;52.358;4.926;2023-06-22T00:49:10;21.85;;;14.55;;
37349;SDS011;23231;52.358;4.926;2023-06-22T00:54:10;22.85;;;13.23;;
37349;SDS011;23231;52.358;4.926;2023-06-22T00:59:13;23.00;;;14.02;;
37349;SDS011;23231;52.358;4.926;2023-06-22T01:04:17;21.15;;;12.93;;
37349;SDS011;23231;52.358;4.926;2023-06-22T01:09:20;25.90;;;15.57;;
37349;SDS011;23231;52.358;4.926;2023-06-22T01:14:30;26.58;;;15.63;;
37349;SDS011;23231;52.358;4.926;2023-06-22T01:19:49;22.38;;;15.30;;
37349;SDS011;23231;52.358;4.926;2023-06-22T01:30:05;24.70;;;15.73;;
37349;SDS011;23231;52.358;4.926;2023-06-22T01:35:07;32.15;;;19.55;;
37349;SDS011;23231;52.358;4.926;2023-06-22T01:40:08;26.85;;;16.63;;
37349;SDS011;23231;52.358;4.926;2023-06-22T01:45:09;28.92;;;19.13;;
37349;SDS011;23231;52.358;4.926;2023-06-22T01:50:11;24.15;;;15.35;;
37349;SDS011;23231;52.358;4.926;2023-06-22T01:55:11;25.42;;;16.02;;
37349;SDS011;23231;52.358;4.926;2023-06-22T02:00:13;34.78;;;18.77;;
37349;SDS011;23231;52.358;4.926;2023-06-22T02:05:16;30.25;;;18.92;;
37349;SDS011;23231;52.358;4.926;2023-06-22T02:10:18;30.27;;;19.40;;
37349;SDS011;23231;52.358;4.926;2023-06-22T02:15:20;24.05;;;15.32;;
37349;SDS011;23231;52.358;4.926;2023-06-22T02:20:21;32.05;;;17.58;;
37349;SDS011;23231;52.358;4.926;2023-06-22T02:25:21;25.73;;;15.88;;
37349;SDS011;23231;52.358;4.926;2023-06-22T02:30:21;24.20;;;15.73;;
37349;SDS011;23231;52.358;4.926;2023-06-22T02:35:22;26.88;;;15.80;;
37349;SDS011;23231;52.358;4.926;2023-06-22T02:40:22;22.55;;;14.45;;
37349;SDS011;23231;52.358;4.926;2023-06-22T02:45:23;29.25;;;19.15;;
37349;SDS011;23231;52.358;4.926;2023-06-22T02:50:23;22.13;;;14.18;;
37349;SDS011;23231;52.358;4.926;2023-06-22T02:55:24;28.65;;;18.27;;
37349;SDS011;23231;52.358;4.926;2023-06-22T03:00:25;30.08;;;18.83;;
37349;SDS011;23231;52.358;4.926;2023-06-22T03:05:30;33.72;;;18.73;;
37349;SDS011;23231;52.358;4.926;2023-06-22T03:10:32;29.25;;;18.67;;
37349;SDS011;23231;52.358;4.926;2023-06-22T03:15:33;26.80;;;17.08;;
37349;SDS011;23231;52.358;4.926;2023-06-22T03:20:33;32.72;;;21.10;;
37349;SDS011;23231;52.358;4.926;2023-06-22T03:25:34;35.85;;;20.65;;
37349;SDS011;23231;52.358;4.926;2023-06-22T03:30:35;28.15;;;18.08;;
37349;SDS011;23231;52.358;4.926;2023-06-22T03:35:36;33.50;;;19.98;;
37349;SDS011;23231;52.358;4.926;2023-06-22T03:40:36;36.95;;;23.13;;
37349;SDS011;23231;52.358;4.926;2023-06-22T03:45:36;37.42;;;20.98;;
37349;SDS011;23231;52.358;4.926;2023-06-22T03:50:37;38.60;;;21.27;;
37349;SDS011;23231;52.358;4.926;2023-06-22T03:55:40;30.50;;;18.52;;
37349;SDS011;23231;52.358;4.926;2023-06-22T04:00:49;29.73;;;19.35;;
37349;SDS011;23231;52.358;4.926;2023-06-22T04:05:50;27.77;;;18.20;;
37349;SDS011;23231;52.358;4.926;2023-06-22T04:10:51;33.53;;;18.85;;
37349;SDS011;23231;52.358;4.926;2023-06-22T04:15:51;31.08;;;19.10;;
37349;SDS011;23231;52.358;4.926;2023-06-22T04:20:52;35.13;;;20.88;;
37349;SDS011;23231;52.358;4.926;2023-06-22T04:25:52;32.10;;;19.88;;
37349;SDS011;23231;52.358;4.926;2023-06-22T04:30:53;35.00;;;20.92;;
37349;SDS011;23231;52.358;4.926;2023-06-22T04:35:57;38.30;;;22.45;;
37349;SDS011;23231;52.358;4.926;2023-06-22T04:40:58;33.67;;;22.73;;
37349;SDS011;23231;52.358;4.926;2023-06-22T04:46:01;32.15;;;19.30;;
37349;SDS011;23231;52.358;4.926;2023-06-22T04:51:03;31.83;;;19.17;;
37349;SDS011;23231;52.358;4.926;2023-06-22T04:56:04;36.05;;;21.88;;
37349;SDS011;23231;52.358;4.926;2023-06-22T05:01:05;29.98;;;20.02;;
37349;SDS011;23231;52.358;4.926;2023-06-22T05:06:05;30.23;;;18.95;;
37349;SDS011;23231;52.358;4.926;2023-06-22T05:11:05;28.00;;;19.35;;
37349;SDS011;23231;52.358;4.926;2023-06-22T05:16:06;27.42;;;18.10;;
37349;SDS011;23231;52.358;4.926;2023-06-22T05:21:07;27.73;;;18.63;;
37349;SDS011;23231;52.358;4.926;2023-06-22T05:26:07;27.15;;;18.25;;
37349;SDS011;23231;52.358;4.926;2023-06-22T05:31:10;29.95;;;20.05;;
37349;SDS011;23231;52.358;4.926;2023-06-22T05:36:10;34.05;;;23.73;;
37349;SDS011;23231;52.358;4.926;2023-06-22T05:41:10;38.30;;;24.13;;
37349;SDS011;23231;52.358;4.926;2023-06-22T05:46:11;35.72;;;25.58;;
37349;SDS011;23231;52.358;4.926;2023-06-22T05:51:11;35.08;;;24.95;;
37349;SDS011;23231;52.358;4.926;2023-06-22T05:56:12;41.58;;;28.67;;
37349;SDS011;23231;52.358;4.926;2023-06-22T06:01:12;44.60;;;30.30;;
37349;SDS011;23231;52.358;4.926;2023-06-22T06:06:15;38.40;;;24.55;;
37349;SDS011;23231;52.358;4.926;2023-06-22T06:11:16;36.58;;;24.27;;
37349;SDS011;23231;52.358;4.926;2023-06-22T06:16:16;39.85;;;26.95;;
37349;SDS011;23231;52.358;4.926;2023-06-22T06:21:17;42.63;;;27.17;;
37349;SDS011;23231;52.358;4.926;2023-06-22T06:26:17;36.65;;;26.30;;
37349;SDS011;23231;52.358;4.926;2023-06-22T06:31:17;41.65;;;26.58;;
37349;SDS011;23231;52.358;4.926;2023-06-22T06:36:18;38.30;;;27.08;;
37349;SDS011;23231;52.358;4.926;2023-06-22T06:41:18;33.78;;;25.85;;
37349;SDS011;23231;52.358;4.926;2023-06-22T06:46:19;35.45;;;25.80;;
37349;SDS011;23231;52.358;4.926;2023-06-22T06:51:19;41.90;;;29.67;;
37349;SDS011;23231;52.358;4.926;2023-06-22T06:56:20;36.95;;;29.10;;
37349;SDS011;23231;52.358;4.926;2023-06-22T07:01:20;39.30;;;27.27;;
37349;SDS011;23231;52.358;4.926;2023-06-22T07:06:21;40.33;;;27.80;;
37349;SDS011;23231;52.358;4.926;2023-06-22T07:11:21;40.58;;;28.75;;
37349;SDS011;23231;52.358;4.926;2023-06-22T07:16:21;36.50;;;28.50;;
37349;SDS011;23231;52.358;4.926;2023-06-22T07:21:22;35.28;;;26.75;;
37349;SDS011;23231;52.358;4.926;2023-06-22T07:26:23;31.63;;;22.92;;
37349;SDS011;23231;52.358;4.926;2023-06-22T07:31:24;37.40;;;25.55;;
37349;SDS011;23231;52.358;4.926;2023-06-22T07:36:25;28.58;;;22.15;;
37349;SDS011;23231;52.358;4.926;2023-06-22T07:41:25;28.50;;;21.10;;
37349;SDS011;23231;52.358;4.926;2023-06-22T07:46:26;26.85;;;18.00;;
37349;SDS011;23231;52.358;4.926;2023-06-22T07:51:26;28.25;;;20.05;;
37349;SDS011;23231;52.358;4.926;2023-06-22T07:56:27;24.25;;;18.85;;
37349;SDS011;23231;52.358;4.926;2023-06-22T08:01:27;21.92;;;17.30;;
37349;SDS011;23231;52.358;4.926;2023-06-22T08:06:29;24.25;;;19.42;;
37349;SDS011;23231;52.358;4.926;2023-06-22T08:11:30;23.02;;;17.17;;
37349;SDS011;23231;52.358;4.926;2023-06-22T08:16:31;24.25;;;18.50;;
37349;SDS011;23231;52.358;4.926;2023-06-22T08:21:31;22.52;;;17.90;;
37349;SDS011;23231;52.358;4.926;2023-06-22T08:26:31;23.45;;;17.73;;
37349;SDS011;23231;52.358;4.926;2023-06-22T08:31:36;21.42;;;16.85;;
37349;SDS011;23231;52.358;4.926;2023-06-22T08:36:36;24.33;;;18.23;;
37349;SDS011;23231;52.358;4.926;2023-06-22T08:41:41;21.73;;;17.73;;
37349;SDS011;23231;52.358;4.926;2023-06-22T08:46:41;21.98;;;18.52;;
37349;SDS011;23231;52.358;4.926;2023-06-22T08:51:42;22.90;;;17.67;;
37349;SDS011;23231;52.358;4.926;2023-06-22T08:56:44;20.42;;;14.52;;
37349;SDS011;23231;52.358;4.926;2023-06-22T09:01:44;22.48;;;17.50;;
37349;SDS011;23231;52.358;4.926;2023-06-22T09:06:48;23.30;;;16.95;;
37349;SDS011;23231;52.358;4.926;2023-06-22T09:11:49;26.45;;;19.10;;
37349;SDS011;23231;52.358;4.926;2023-06-22T09:16:50;23.33;;;19.70;;
37349;SDS011;23231;52.358;4.926;2023-06-22T09:21:50;20.25;;;16.00;;
37349;SDS011;23231;52.358;4.926;2023-06-22T09:26:51;26.50;;;20.25;;
37349;SDS011;23231;52.358;4.926;2023-06-22T09:31:51;26.17;;;21.40;;
37349;SDS011;23231;52.358;4.926;2023-06-22T09:36:53;25.02;;;19.08;;
37349;SDS011;23231;52.358;4.926;2023-06-22T09:41:55;23.17;;;17.33;;
37349;SDS011;23231;52.358;4.926;2023-06-22T09:46:58;25.52;;;20.60;;
37349;SDS011;23231;52.358;4.926;2023-06-22T09:51:58;24.25;;;19.38;;
37349;SDS011;23231;52.358;4.926;2023-06-22T09:56:59;27.40;;;18.65;;
37349;SDS011;23231;52.358;4.926;2023-06-22T10:01:59;25.83;;;19.10;;
37349;SDS011;23231;52.358;4.926;2023-06-22T10:07:00;22.02;;;16.10;;
37349;SDS011;23231;52.358;4.926;2023-06-22T10:12:01;19.27;;;14.73;;
37349;SDS011;23231;52.358;4.926;2023-06-22T10:17:02;18.20;;;13.80;;
37349;SDS011;23231;52.358;4.926;2023-06-22T10:22:03;19.17;;;15.15;;
37349;SDS011;23231;52.358;4.926;2023-06-22T10:27:05;21.13;;;14.93;;
37349;SDS011;23231;52.358;4.926;2023-06-22T10:32:05;15.15;;;11.52;;
37349;SDS011;23231;52.358;4.926;2023-06-22T10:37:06;16.45;;;13.45;;
37349;SDS011;23231;52.358;4.926;2023-06-22T10:42:07;18.83;;;13.73;;
37349;SDS011;23231;52.358;4.926;2023-06-22T10:47:07;18.08;;;14.48;;
37349;SDS011;23231;52.358;4.926;2023-06-22T10:52:08;17.20;;;13.73;;
37349;SDS011;23231;52.358;4.926;2023-06-22T10:57:08;19.48;;;14.88;;
37349;SDS011;23231;52.358;4.926;2023-06-22T11:02:09;16.63;;;14.10;;
37349;SDS011;23231;52.358;4.926;2023-06-22T11:07:09;15.55;;;11.60;;
37349;SDS011;23231;52.358;4.926;2023-06-22T11:12:10;18.75;;;13.48;;
37349;SDS011;23231;52.358;4.926;2023-06-22T11:17:10;18.92;;;14.80;;
37349;SDS011;23231;52.358;4.926;2023-06-22T11:22:11;14.90;;;12.15;;
37349;SDS011;23231;52.358;4.926;2023-06-22T11:27:11;17.92;;;14.02;;
37349;SDS011;23231;52.358;4.926;2023-06-22T11:32:12;19.73;;;15.32;;
37349;SDS011;23231;52.358;4.926;2023-06-22T11:37:12;18.75;;;13.95;;
37349;SDS011;23231;52.358;4.926;2023-06-22T11:42:12;18.58;;;14.88;;
37349;SDS011;23231;52.358;4.926;2023-06-22T11:47:13;18.80;;;14.95;;
37349;SDS011;23231;52.358;4.926;2023-06-22T11:52:13;17.23;;;14.93;;
37349;SDS011;23231;52.358;4.926;2023-06-22T11:57:14;20.63;;;14.77;;
37349;SDS011;23231;52.358;4.926;2023-06-22T12:02:14;17.63;;;12.80;;
37349;SDS011;23231;52.358;4.926;2023-06-22T12:07:15;24.02;;;14.90;;
37349;SDS011;23231;52.358;4.926;2023-06-22T12:12:15;18.05;;;12.73;;
37349;SDS011;23231;52.358;4.926;2023-06-22T12:17:16;15.65;;;10.20;;
37349;SDS011;23231;52.358;4.926;2023-06-22T12:22:16;15.45;;;11.18;;
37349;SDS011;23231;52.358;4.926;2023-06-22T12:27:17;15.73;;;11.63;;
37349;SDS011;23231;52.358;4.926;2023-06-22T12:32:20;16.17;;;11.07;;
37349;SDS011;23231;52.358;4.926;2023-06-22T12:37:21;15.13;;;11.15;;
37349;SDS011;23231;52.358;4.926;2023-06-22T12:42:21;15.45;;;10.32;;
37349;SDS011;23231;52.358;4.926;2023-06-22T12:47:22;14.80;;;11.00;;
37349;SDS011;23231;52.358;4.926;2023-06-22T12:52:22;12.02;;;9.43;;
37349;SDS011;23231;52.358;4.926;2023-06-22T12:57:22;15.07;;;9.45;;
37349;SDS011;23231;52.358;4.926;2023-06-22T13:06:19;11.65;;;7.55;;
37349;SDS011;23231;52.358;4.926;2023-06-22T13:11:20;11.77;;;9.43;;
37349;SDS011;23231;52.358;4.926;2023-06-22T13:16:20;12.98;;;8.63;;
37349;SDS011;23231;52.358;4.926;2023-06-22T13:21:21;16.45;;;9.07;;
37349;SDS011;23231;52.358;4.926;2023-06-22T13:26:21;12.18;;;9.32;;
37349;SDS011;23231;52.358;4.926;2023-06-22T13:31:22;10.57;;;7.78;;
37349;SDS011;23231;52.358;4.926;2023-06-22T13:36:22;12.52;;;7.18;;
37349;SDS011;23231;52.358;4.926;2023-06-22T13:41:23;12.23;;;8.25;;
37349;SDS011;23231;52.358;4.926;2023-06-22T13:46:23;10.95;;;7.45;;
37349;SDS011;23231;52.358;4.926;2023-06-22T13:51:24;10.23;;;7.95;;
37349;SDS011;23231;52.358;4.926;2023-06-22T13:56:24;10.82;;;7.43;;
37349;SDS011;23231;52.358;4.926;2023-06-22T14:01:25;11.07;;;7.35;;
37349;SDS011;23231;52.358;4.926;2023-06-22T14:06:25;8.77;;;6.68;;
37349;SDS011;23231;52.358;4.926;2023-06-22T14:11:25;11.25;;;7.72;;
37349;SDS011;23231;52.358;4.926;2023-06-22T14:16:26;9.50;;;7.15;;
37349;SDS011;23231;52.358;4.926;2023-06-22T14:21:26;10.40;;;7.13;;
37349;SDS011;23231;52.358;4.926;2023-06-22T14:26:27;10.77;;;7.40;;
37349;SDS011;23231;52.358;4.926;2023-06-22T14:31:27;10.85;;;7.88;;
37349;SDS011;23231;52.358;4.926;2023-06-22T14:36:28;10.00;;;8.30;;
37349;SDS011;23231;52.358;4.926;2023-06-22T14:41:29;11.43;;;9.02;;
37349;SDS011;23231;52.358;4.926;2023-06-22T14:46:30;10.80;;;7.68;;
37349;SDS011;23231;52.358;4.926;2023-06-22T14:51:30;11.48;;;8.20;;
37349;SDS011;23231;52.358;4.926;2023-06-22T14:56:31;11.25;;;8.90;;
37349;SDS011;23231;52.358;4.926;2023-06-22T15:01:31;10.70;;;7.88;;
37349;SDS011;23231;52.358;4.926;2023-06-22T15:06:31;9.77;;;6.25;;
37349;SDS011;23231;52.358;4.926;2023-06-22T15:11:32;8.30;;;6.15;;
37349;SDS011;23231;52.358;4.926;2023-06-22T15:16:33;11.13;;;7.43;;
37349;SDS011;23231;52.358;4.926;2023-06-22T15:21:34;9.65;;;6.80;;
37349;SDS011;23231;52.358;4.926;2023-06-22T15:26:34;12.02;;;7.07;;
37349;SDS011;23231;52.358;4.926;2023-06-22T15:31:34;10.43;;;7.28;;
37349;SDS011;23231;52.358;4.926;2023-06-22T15:36:35;10.30;;;6.80;;
37349;SDS011;23231;52.358;4.926;2023-06-22T15:41:35;9.45;;;5.95;;
37349;SDS011;23231;52.358;4.926;2023-06-22T15:46:36;10.73;;;7.22;;
37349;SDS011;23231;52.358;4.926;2023-06-22T15:51:36;8.60;;;6.50;;
37349;SDS011;23231;52.358;4.926;2023-06-22T15:56:37;9.95;;;6.75;;
37349;SDS011;23231;52.358;4.926;2023-06-22T16:01:37;11.55;;;7.28;;
37349;SDS011;23231;52.358;4.926;2023-06-22T16:06:38;11.43;;;7.93;;
37349;SDS011;23231;52.358;4.926;2023-06-22T16:11:38;12.40;;;7.70;;
37349;SDS011;23231;52.358;4.926;2023-06-22T16:16:39;10.88;;;6.85;;
37349;SDS011;23231;52.358;4.926;2023-06-22T16:21:39;11.13;;;6.82;;
37349;SDS011;23231;52.358;4.926;2023-06-22T16:26:40;9.05;;;6.10;;
37349;SDS011;23231;52.358;4.926;2023-06-22T16:31:41;7.20;;;4.97;;
37349;SDS011;23231;52.358;4.926;2023-06-22T16:36:42;7.22;;;4.13;;
37349;SDS011;23231;52.358;4.926;2023-06-22T16:41:42;7.72;;;4.10;;
37349;SDS011;23231;52.358;4.926;2023-06-22T16:46:43;8.70;;;4.60;;
37349;SDS011;23231;52.358;4.926;2023-06-22T16:51:44;7.00;;;3.92;;
37349;SDS011;23231;52.358;4.926;2023-06-22T16:56:44;6.68;;;4.40;;
37349;SDS011;23231;52.358;4.926;2023-06-22T17:01:56;8.43;;;4.18;;
37349;SDS011;23231;52.358;4.926;2023-06-22T17:07:16;7.25;;;3.92;;
37349;SDS011;23231;52.358;4.926;2023-06-22T17:12:18;6.35;;;3.83;;
37349;SDS011;23231;52.358;4.926;2023-06-22T17:17:19;7.32;;;3.50;;
37349;SDS011;23231;52.358;4.926;2023-06-22T17:22:22;8.30;;;3.33;;
37349;SDS011;23231;52.358;4.926;2023-06-22T17:27:28;5.43;;;2.97;;
37349;SDS011;23231;52.358;4.926;2023-06-22T17:32:29;8.27;;;2.67;;
37349;SDS011;23231;52.358;4.926;2023-06-22T17:37:34;5.93;;;2.50;;
37349;SDS011;23231;52.358;4.926;2023-06-22T17:42:47;4.15;;;2.20;;
37349;SDS011;23231;52.358;4.926;2023-06-22T17:47:50;7.75;;;2.28;;
37349;SDS011;23231;52.358;4.926;2023-06-22T17:52:53;3.85;;;1.90;;
37349;SDS011;23231;52.358;4.926;2023-06-22T17:57:56;3.45;;;1.90;;
37349;SDS011;23231;52.358;4.926;2023-06-22T18:02:56;4.18;;;2.00;;
37349;SDS011;23231;52.358;4.926;2023-06-22T18:07:58;3.83;;;1.90;;
37349;SDS011;23231;52.358;4.926;2023-06-22T18:13:02;3.78;;;1.92;;
37349;SDS011;23231;52.358;4.926;2023-06-22T18:18:05;3.90;;;2.05;;
37349;SDS011;23231;52.358;4.926;2023-06-22T18:23:07;5.63;;;1.77;;
37349;SDS011;23231;52.358;4.926;2023-06-22T18:28:09;4.25;;;1.88;;
37349;SDS011;23231;52.358;4.926;2023-06-22T18:33:11;4.25;;;2.10;;
37349;SDS011;23231;52.358;4.926;2023-06-22T18:38:12;4.45;;;2.17;;
37349;SDS011;23231;52.358;4.926;2023-06-22T18:43:12;4.03;;;2.20;;
37349;SDS011;23231;52.358;4.926;2023-06-22T18:48:23;5.15;;;2.20;;
37349;SDS011;23231;52.358;4.926;2023-06-22T18:58:26;6.55;;;2.33;;
37349;SDS011;23231;52.358;4.926;2023-06-22T19:03:30;7.10;;;2.75;;
37349;SDS011;23231;52.358;4.926;2023-06-22T19:14:09;6.07;;;3.58;;
37349;SDS011;23231;52.358;4.926;2023-06-22T19:19:12;6.43;;;3.22;;
37349;SDS011;23231;52.358;4.926;2023-06-22T19:24:27;6.22;;;2.78;;
37349;SDS011;23231;52.358;4.926;2023-06-22T19:29:29;5.80;;;2.72;;
37349;SDS011;23231;52.358;4.926;2023-06-22T19:34:30;6.72;;;3.10;;
37349;SDS011;23231;52.358;4.926;2023-06-22T19:39:35;7.00;;;2.67;;
37349;SDS011;23231;52.358;4.926;2023-06-22T19:44:36;7.07;;;3.10;;
37349;SDS011;23231;52.358;4.926;2023-06-22T19:49:36;9.57;;;3.17;;
37349;SDS011;23231;52.358;4.926;2023-06-22T19:54:40;6.20;;;3.05;;
37349;SDS011;23231;52.358;4.926;2023-06-22T19:59:40;4.95;;;3.00;;
37349;SDS011;23231;52.358;4.926;2023-06-22T20:04:41;6.68;;;3.40;;
37349;SDS011;23231;52.358;4.926;2023-06-22T20:09:43;5.47;;;3.35;;
37349;SDS011;23231;52.358;4.926;2023-06-22T20:14:44;7.22;;;4.20;;
37349;SDS011;23231;52.358;4.926;2023-06-22T20:19:44;6.68;;;3.70;;
37349;SDS011;23231;52.358;4.926;2023-06-22T20:24:45;7.60;;;4.10;;
37349;SDS011;23231;52.358;4.926;2023-06-22T20:29:46;8.02;;;4.00;;
37349;SDS011;23231;52.358;4.926;2023-06-22T20:34:47;6.97;;;3.75;;
37349;SDS011;23231;52.358;4.926;2023-06-22T20:39:48;7.07;;;4.10;;
37349;SDS011;23231;52.358;4.926;2023-06-22T20:44:48;7.35;;;4.57;;
37349;SDS011;23231;52.358;4.926;2023-06-22T20:49:49;10.57;;;4.15;;
37349;SDS011;23231;52.358;4.926;2023-06-22T20:54:53;7.65;;;4.78;;
37349;SDS011;23231;52.358;4.926;2023-06-22T20:59:54;5.70;;;4.05;;
37349;SDS011;23231;52.358;4.926;2023-06-22T21:04:54;7.05;;;4.68;;
37349;SDS011;23231;52.358;4.926;2023-06-22T21:09:55;9.30;;;4.90;;
37349;SDS011;23231;52.358;4.926;2023-06-22T21:14:56;9.63;;;5.15;;
37349;SDS011;23231;52.358;4.926;2023-06-22T21:19:56;8.35;;;5.80;;
37349;SDS011;23231;52.358;4.926;2023-06-22T21:30:13;12.63;;;6.82;;
37349;SDS011;23231;52.358;4.926;2023-06-22T21:35:15;10.20;;;7.03;;
37349;SDS011;23231;52.358;4.926;2023-06-22T21:40:15;9.45;;;6.72;;
37349;SDS011;23231;52.358;4.926;2023-06-22T21:45:16;12.27;;;7.82;;
37349;SDS011;23231;52.358;4.926;2023-06-22T21:50:16;9.18;;;6.63;;
37349;SDS011;23231;52.358;4.926;2023-06-22T21:55:17;11.40;;;7.00;;
37349;SDS011;23231;52.358;4.926;2023-06-22T22:00:17;10.23;;;6.95;;
37349;SDS011;23231;52.358;4.926;2023-06-22T22:05:18;12.52;;;7.30;;
37349;SDS011;23231;52.358;4.926;2023-06-22T22:10:19;11.57;;;7.55;;
37349;SDS011;23231;52.358;4.926;2023-06-22T22:15:19;13.80;;;9.45;;
37349;SDS011;23231;52.358;4.926;2023-06-22T22:20:20;12.13;;;9.10;;
37349;SDS011;23231;52.358;4.926;2023-06-22T22:25:20;12.00;;;8.70;;
37349;SDS011;23231;52.358;4.926;2023-06-22T22:30:25;13.47;;;8.50;;
37349;SDS011;23231;52.358;4.926;2023-06-22T22:35:26;12.48;;;8.38;;
37349;SDS011;23231;52.358;4.926;2023-06-22T22:40:26;11.70;;;8.20;;
37349;SDS011;23231;52.358;4.926;2023-06-22T22:45:26;12.23;;;8.68;;
37349;SDS011;23231;52.358;4.926;2023-06-22T22:50:27;10.93;;;7.65;;
37349;SDS011;23231;52.358;4.926;2023-06-22T22:55:27;11.13;;;7.45;;
37349;SDS011;23231;52.358;4.926;2023-06-22T23:00:28;11.20;;;6.88;;
37349;SDS011;23231;52.358;4.926;2023-06-22T23:05:28;9.93;;;6.82;;
37349;SDS011;23231;52.358;4.926;2023-06-22T23:10:29;9.30;;;6.93;;
37349;SDS011;23231;52.358;4.926;2023-06-22T23:15:29;9.30;;;7.30;;
37349;SDS011;23231;52.358;4.926;2023-06-22T23:20:30;10.27;;;6.60;;
37349;SDS011;23231;52.358;4.926;2023-06-22T23:25:31;12.80;;;9.27;;
37349;SDS011;23231;52.358;4.926;2023-06-22T23:30:33;13.93;;;10.02;;
37349;SDS011;23231;52.358;4.926;2023-06-22T23:35:34;16.85;;;10.57;;
37349;SDS011;23231;52.358;4.926;2023-06-22T23:40:34;15.00;;;10.95;;
37349;SDS011;23231;52.358;4.926;2023-06-22T23:45:36;14.27;;;11.45;;
37349;SDS011;23231;52.358;4.926;2023-06-22T23:50:36;17.08;;;11.73;;
37349;SDS011;23231;52.358;4.926;2023-06-22T23:55:40;18.00;;;12.75;;
